Time,TemperatureF,DewpointF,PressureIn,WindDirection,WindDirectionDegrees,WindSpeedMPH,WindSpeedGustMPH,Humidity,HourlyPrecipIn,Conditions,Clouds,dailyrainin,SolarRadiationWatts/m^2,SoftwareType,DateUTC
2013-01-10 00:12:00,32.0,28.0,-100.00,NW,309,8.0,12.0,84,-99.99,,,0.00,0.000000,,2013-01-10 07:12:00,
2013-01-10 01:11:00,33.0,28.0,-100.00,NNE,22,4.0,7.0,79,-99.99,,,0.00,0.000000,,2013-01-10 08:11:00,
2013-01-10 02:12:00,32.0,29.0,-100.00,NNE,33,7.0,10.0,88,-99.99,,,0.00,0.000000,,2013-01-10 09:12:00,
2013-01-10 03:12:00,41.0,26.0,-100.00,South,169,14.0,22.0,54,-99.99,,,0.00,0.000000,,2013-01-10 10:12:00,
2013-01-10 04:12:00,39.0,29.0,-100.00,WSW,243,11.0,25.0,67,-99.99,,,0.00,0.000000,,2013-01-10 11:12:00,
2013-01-10 04:42:00,33.0,33.0,-100.00,WSW,251,8.0,13.0,100,-99.99,,,0.00,0.000000,,2013-01-10 11:42:00,
2013-01-10 04:53:00,33.0,33.0,-100.00,WSW,251,8.0,13.0,100,-99.99,,,0.00,0.000000,,2013-01-10 11:53:00,
2013-01-10 05:02:00,33.0,33.0,-100.00,WSW,251,8.0,13.0,100,-99.99,,,0.00,0.000000,,2013-01-10 12:02:00,
2013-01-10 05:12:00,33.0,33.0,-100.00,WSW,251,8.0,13.0,100,-99.99,,,0.00,0.000000,,2013-01-10 12:12:00,
2013-01-10 05:42:00,38.0,31.0,-100.00,South,183,14.0,20.0,75,-99.99,,,0.01,0.000000,,2013-01-10 12:42:00,
2013-01-10 05:53:00,38.0,31.0,-100.00,South,183,14.0,20.0,75,-99.99,,,0.01,0.000000,,2013-01-10 12:53:00,
2013-01-10 06:02:00,38.0,31.0,-100.00,South,183,14.0,20.0,75,-99.99,,,0.01,0.000000,,2013-01-10 13:02:00,
2013-01-10 06:11:00,38.0,31.0,-100.00,South,183,14.0,20.0,75,-99.99,,,0.01,0.000000,,2013-01-10 13:11:00,
2013-01-10 06:42:00,39.0,31.0,-100.00,SSW,197,14.0,19.0,74,-99.99,,,0.01,0.000000,,2013-01-10 13:42:00,
2013-01-10 06:53:00,39.0,31.0,-100.00,SSW,197,14.0,19.0,74,-99.99,,,0.01,0.000000,,2013-01-10 13:53:00,
2013-01-10 07:02:00,39.0,31.0,-100.00,SSW,197,14.0,19.0,74,-99.99,,,0.01,0.000000,,2013-01-10 14:02:00,
2013-01-10 07:12:00,39.0,31.0,-100.00,SSW,197,14.0,19.0,74,-99.99,,,0.01,0.000000,,2013-01-10 14:12:00,
2013-01-10 07:43:00,38.0,31.0,-100.00,South,179,1.0,3.0,73,-99.99,,,0.01,0.000000,,2013-01-10 14:43:00,
2013-01-10 07:53:00,38.0,31.0,-100.00,South,179,1.0,3.0,73,-99.99,,,0.01,0.000000,,2013-01-10 14:53:00,
2013-01-10 08:03:00,38.0,31.0,-100.00,South,179,1.0,3.0,73,-99.99,,,0.01,0.000000,,2013-01-10 15:03:00,
2013-01-10 08:12:00,38.0,31.0,-100.00,South,179,1.0,3.0,73,-99.99,,,0.01,0.000000,,2013-01-10 15:12:00,
2013-01-10 08:43:00,38.0,31.0,-100.00,NNW,337,5.0,8.0,75,-99.99,,,0.01,3.140000,,2013-01-10 15:43:00,
2013-01-10 08:53:00,38.0,31.0,-100.00,NNW,337,5.0,8.0,75,-99.99,,,0.01,3.140000,,2013-01-10 15:53:00,
2013-01-10 09:02:00,38.0,31.0,-100.00,NNW,337,5.0,8.0,75,-99.99,,,0.01,3.140000,,2013-01-10 16:02:00,
2013-01-10 09:12:00,38.0,31.0,-100.00,NNW,337,5.0,8.0,75,-99.99,,,0.01,3.140000,,2013-01-10 16:12:00,
2013-01-10 09:42:00,35.0,30.0,-100.00,WSW,249,19.0,38.0,79,-99.99,,,0.01,57.299999,,2013-01-10 16:42:00,
2013-01-10 09:53:00,35.0,30.0,-100.00,WSW,249,19.0,38.0,79,-99.99,,,0.01,57.299999,,2013-01-10 16:53:00,
2013-01-10 10:02:00,35.0,30.0,-100.00,WSW,249,19.0,38.0,79,-99.99,,,0.01,57.299999,,2013-01-10 17:02:00,
2013-01-10 10:12:00,35.0,30.0,-100.00,WSW,249,19.0,38.0,79,-99.99,,,0.01,57.299999,,2013-01-10 17:12:00,
2013-01-10 10:42:00,28.0,26.0,-100.00,WSW,252,27.0,39.0,92,-99.99,,,0.01,150.160004,,2013-01-10 17:42:00,
2013-01-10 10:53:00,28.0,26.0,-100.00,WSW,252,27.0,39.0,92,-99.99,,,0.01,150.160004,,2013-01-10 17:53:00,
2013-01-10 11:03:00,28.0,26.0,-100.00,WSW,252,27.0,39.0,92,-99.99,,,0.01,150.160004,,2013-01-10 18:03:00,
2013-01-10 11:12:00,28.0,26.0,-100.00,WSW,252,27.0,39.0,92,-99.99,,,0.01,150.160004,,2013-01-10 18:12:00,
2013-01-10 11:43:00,27.0,25.0,-100.00,SW,235,18.0,25.0,93,-99.99,,,0.01,159.220001,,2013-01-10 18:43:00,
2013-01-10 11:53:00,27.0,25.0,-100.00,SW,235,18.0,25.0,93,-99.99,,,0.01,159.220001,,2013-01-10 18:53:00,
2013-01-10 12:02:00,27.0,25.0,-100.00,SW,235,18.0,25.0,93,-99.99,,,0.01,159.220001,,2013-01-10 19:02:00,
2013-01-10 12:12:00,27.0,25.0,-100.00,SW,235,18.0,25.0,93,-99.99,,,0.01,159.220001,,2013-01-10 19:12:00,
2013-01-10 12:43:00,26.0,25.0,-100.00,SW,231,17.0,28.0,99,-99.99,,,0.01,200.710007,,2013-01-10 19:43:00,
2013-01-10 12:53:00,26.0,25.0,-100.00,SW,231,17.0,28.0,99,-99.99,,,0.01,200.710007,,2013-01-10 19:53:00,
2013-01-10 13:02:00,26.0,25.0,-100.00,SW,231,17.0,28.0,99,-99.99,,,0.01,200.710007,,2013-01-10 20:02:00,
2013-01-10 13:12:00,26.0,25.0,-100.00,SW,231,17.0,28.0,99,-99.99,,,0.01,200.710007,,2013-01-10 20:12:00,
2013-01-10 13:42:00,24.0,23.0,-100.00,SW,234,20.0,24.0,96,-99.99,,,0.01,263.010010,,2013-01-10 20:42:00,
2013-01-10 13:53:00,24.0,23.0,-100.00,SW,234,20.0,24.0,96,-99.99,,,0.01,263.010010,,2013-01-10 20:53:00,
2013-01-10 14:03:00,24.0,23.0,-100.00,SW,234,20.0,24.0,96,-99.99,,,0.01,263.010010,,2013-01-10 21:03:00,
2013-01-10 14:12:00,24.0,23.0,-100.00,SW,234,20.0,24.0,96,-99.99,,,0.01,263.010010,,2013-01-10 21:12:00,
2013-01-10 14:33:00,23.0,22.0,-100.00,SW,225,22.0,27.0,96,-99.99,,,0.01,179.440002,,2013-01-10 21:33:00,
2013-01-10 14:42:00,23.0,22.0,-100.00,SW,225,22.0,27.0,96,-99.99,,,0.01,179.440002,,2013-01-10 21:42:00,
2013-01-10 14:53:00,23.0,22.0,-100.00,SW,225,22.0,27.0,96,-99.99,,,0.01,179.440002,,2013-01-10 21:53:00,
2013-01-10 15:03:00,23.0,22.0,-100.00,SW,225,22.0,27.0,96,-99.99,,,0.01,179.440002,,2013-01-10 22:03:00,
2013-01-10 15:12:00,23.0,22.0,-100.00,SW,225,22.0,27.0,96,-99.99,,,0.01,179.440002,,2013-01-10 22:12:00,
2013-01-10 15:43:00,23.0,23.0,-100.00,SW,228,18.0,24.0,96,-99.99,,,0.01,138.880005,,2013-01-10 22:43:00,
2013-01-10 16:02:00,23.0,23.0,-100.00,SW,228,18.0,24.0,96,-99.99,,,0.01,138.880005,,2013-01-10 23:02:00,
2013-01-10 16:12:00,23.0,23.0,-100.00,SW,228,18.0,24.0,96,-99.99,,,0.01,138.880005,,2013-01-10 23:12:00,
2013-01-10 16:42:00,23.0,22.0,-100.00,SW,230,18.0,23.0,96,-99.99,,,0.01,72.059998,,2013-01-10 23:42:00,
2013-01-10 16:53:00,23.0,22.0,-100.00,SW,230,18.0,23.0,96,-99.99,,,0.01,72.059998,,2013-01-10 23:53:00,
2013-01-10 17:02:00,23.0,22.0,-100.00,SW,230,18.0,23.0,96,-99.99,,,0.01,72.059998,,2013-01-11 00:02:00,
2013-01-10 17:12:00,23.0,22.0,-100.00,SW,230,18.0,23.0,96,-99.99,,,0.01,72.059998,,2013-01-11 00:12:00,
2013-01-10 17:42:00,22.0,21.0,-100.00,WSW,242,21.0,28.0,94,-99.99,,,0.01,5.690000,,2013-01-11 00:42:00,
2013-01-10 17:53:00,22.0,21.0,-100.00,WSW,242,21.0,28.0,94,-99.99,,,0.01,5.690000,,2013-01-11 00:53:00,
2013-01-10 18:02:00,22.0,21.0,-100.00,WSW,242,21.0,28.0,94,-99.99,,,0.01,5.690000,,2013-01-11 01:02:00,
2013-01-10 18:12:00,22.0,21.0,-100.00,WSW,242,21.0,28.0,94,-99.99,,,0.01,5.690000,,2013-01-11 01:12:00,
2013-01-10 18:43:00,22.0,20.0,-100.00,WSW,243,21.0,31.0,93,-99.99,,,0.01,0.000000,,2013-01-11 01:43:00,
2013-01-10 18:53:00,22.0,20.0,-100.00,WSW,243,21.0,31.0,93,-99.99,,,0.01,0.000000,,2013-01-11 01:53:00,
2013-01-10 19:02:00,22.0,20.0,-100.00,WSW,243,21.0,31.0,93,-99.99,,,0.01,0.000000,,2013-01-11 02:02:00,
2013-01-10 19:12:00,22.0,20.0,-100.00,WSW,243,21.0,31.0,93,-99.99,,,0.01,0.000000,,2013-01-11 02:12:00,
2013-01-10 20:12:00,21.0,20.0,-100.00,WSW,246,20.0,27.0,92,-99.99,,,0.01,0.000000,,2013-01-11 03:12:00,
2013-01-10 21:12:00,21.0,19.0,-100.00,WSW,245,21.0,27.0,92,-99.99,,,0.01,0.000000,,2013-01-11 04:12:00,
2013-01-10 22:12:00,21.0,19.0,-100.00,WSW,240,17.0,22.0,93,-99.99,,,0.01,0.000000,,2013-01-11 05:12:00,
2013-01-10 23:12:00,21.0,19.0,-100.00,WSW,239,17.0,23.0,92,-99.99,,,0.01,0.000000,,2013-01-11 06:12:00,